createdAt,value
2023-04-19T00:06:05.137Z,2.2
2023-04-19T00:16:06.908Z,4.4
2023-04-19T00:26:08.768Z,3.8
2023-04-19T00:36:10.673Z,3.4
2023-04-19T00:46:12.621Z,2.7
2023-04-19T00:56:14.331Z,4.4
2023-04-19T01:06:16.339Z,2.8
2023-04-19T01:16:17.920Z,5.9
2023-04-19T01:26:19.491Z,3.1
2023-04-19T01:36:21.211Z,7.6
2023-04-19T01:46:22.946Z,3
2023-04-19T01:56:24.556Z,3.9
2023-04-19T02:06:26.218Z,4
2023-04-19T02:16:27.891Z,5.4
2023-04-19T02:26:29.492Z,2.8
2023-04-19T02:36:31.171Z,2.9
2023-04-19T02:46:32.767Z,6.8
2023-04-19T02:56:34.375Z,3.7
2023-04-19T03:06:36.038Z,5.2
2023-04-19T03:16:37.672Z,4.6
2023-04-19T03:26:39.244Z,4.8
2023-04-19T03:36:40.795Z,4.6
2023-04-19T03:46:42.417Z,4.8
2023-04-19T03:56:43.931Z,5.8
2023-04-19T04:06:45.495Z,3.1
2023-04-19T04:16:47.051Z,3.3
2023-04-19T04:26:48.672Z,5.8
2023-04-19T04:36:50.226Z,6.7
2023-04-19T04:46:51.742Z,4.2
2023-04-19T04:56:53.351Z,4.1
2023-04-19T05:06:55.031Z,2.5
2023-04-19T05:16:56.545Z,3
2023-04-19T05:26:58.064Z,3.4
2023-04-19T05:36:59.622Z,4.9
2023-04-19T05:47:01.189Z,5.8
2023-04-19T05:57:02.672Z,11.7
2023-04-19T06:07:06.119Z,5.8
2023-04-19T06:17:05.628Z,5
2023-04-19T06:27:07.071Z,3.8
2023-04-19T06:37:08.559Z,4.3
2023-04-19T06:47:09.944Z,5.9
2023-04-19T06:57:11.376Z,3.5
2023-04-19T07:07:12.764Z,4
2023-04-19T07:17:14.154Z,4.4
2023-04-19T07:27:15.524Z,3.5
2023-04-19T07:37:16.895Z,4.4
2023-04-19T07:47:18.192Z,4.6
2023-04-19T07:57:19.553Z,4.7
2023-04-19T08:07:20.911Z,4.3
2023-04-19T08:17:25.883Z,5.3
2023-04-19T08:27:23.519Z,5.9
2023-04-19T08:37:24.839Z,9.4
2023-04-19T08:47:31.082Z,5.9
2023-04-19T08:57:27.240Z,6.2
2023-04-19T09:07:28.520Z,6.3
2023-04-19T09:17:29.674Z,5.3
2023-04-19T09:27:30.823Z,4.5
2023-04-19T09:37:51.235Z,8.1
2023-04-19T09:47:33.090Z,5.5
2023-04-19T09:57:34.149Z,9.5
2023-04-19T10:07:35.351Z,9.7
2023-04-19T10:17:36.406Z,10.3
2023-04-19T10:27:37.553Z,8.9
2023-04-19T10:37:38.616Z,7.8
2023-04-19T10:47:39.729Z,8.1
2023-04-19T10:57:40.962Z,12.5
2023-04-19T11:07:42.013Z,11.6
2023-04-19T11:17:43.252Z,8
2023-04-19T11:27:44.451Z,18.1
2023-04-19T11:37:45.651Z,8.8
2023-04-19T11:47:46.873Z,9.9
2023-04-19T11:57:47.995Z,12.2
2023-04-19T12:07:49.277Z,10.8
2023-04-19T12:17:56.780Z,13.6
2023-04-19T12:27:51.912Z,11.1
2023-04-19T12:37:53.209Z,14.6
2023-04-19T12:47:54.643Z,15.1
2023-04-19T12:57:55.942Z,17.1
2023-04-19T13:07:57.493Z,9.6
2023-04-19T13:17:59.136Z,6.4
2023-04-19T13:28:00.759Z,11.5
2023-04-19T13:38:02.421Z,12.6
2023-04-19T13:48:04.041Z,12.2
2023-04-19T13:58:05.620Z,10.5
2023-04-19T14:08:07.180Z,6.9
2023-04-19T14:18:08.882Z,6.5
2023-04-19T14:28:10.446Z,10.3
2023-04-19T14:38:13.180Z,12.9
2023-04-19T14:48:13.748Z,11.5
2023-04-19T14:58:15.370Z,8.8
2023-04-19T15:08:29.531Z,9.6
2023-04-19T15:18:18.743Z,9.5
2023-04-19T15:28:20.465Z,14.5
2023-04-19T15:38:22.218Z,14.2
2023-04-19T15:48:23.878Z,10.4
2023-04-19T15:58:25.574Z,7.6
2023-04-19T16:08:27.379Z,7.4
2023-04-19T16:18:29.213Z,10.9
2023-04-19T16:28:31.102Z,8.4
2023-04-19T16:38:33.013Z,7
2023-04-19T16:48:35.080Z,8.3
2023-04-19T16:58:36.979Z,10.8
2023-04-19T17:08:38.997Z,7.5
2023-04-19T17:18:41.079Z,6.3
2023-04-19T17:28:42.906Z,8.6
2023-04-19T17:38:44.995Z,7.1
2023-04-19T17:48:47.019Z,14
2023-04-19T17:58:49.177Z,6.8
2023-04-19T18:08:51.229Z,5.1
2023-04-19T18:18:53.413Z,8.4
2023-04-19T18:28:55.760Z,7.6
2023-04-19T18:38:57.733Z,9.7
2023-04-19T18:48:59.803Z,8.2
2023-04-19T18:59:01.872Z,5.9
2023-04-19T19:09:03.999Z,6.7
2023-04-19T19:19:06.173Z,6.5
2023-04-19T19:29:09.185Z,13.7
2023-04-19T19:39:10.464Z,9.3
2023-04-19T19:49:13.112Z,9.3
2023-04-19T19:59:15.053Z,7
2023-04-19T20:09:16.934Z,7.9
2023-04-19T20:19:18.999Z,7
2023-04-19T20:29:20.885Z,8
2023-04-19T20:39:23.007Z,7.2
2023-04-19T20:49:25.078Z,11.7
2023-04-19T20:59:27.134Z,5.6
2023-04-19T21:09:29.131Z,5.6
2023-04-19T21:19:31.186Z,7.5
2023-04-19T21:29:33.215Z,11
2023-04-19T21:39:35.158Z,8.7
2023-04-19T21:49:37.145Z,7.9
2023-04-19T21:59:39.113Z,8.8
2023-04-19T22:09:41.065Z,8.1
2023-04-19T22:19:43.000Z,6.9
2023-04-19T22:29:44.952Z,7.2
2023-04-19T22:39:46.914Z,6.5
2023-04-19T22:49:48.815Z,8.8
2023-04-19T22:59:50.655Z,6.2
2023-04-19T23:09:52.449Z,7.6
2023-04-19T23:19:54.210Z,5.2
2023-04-19T23:29:55.913Z,6.7
2023-04-19T23:39:57.594Z,6
2023-04-19T23:49:59.342Z,6.8
